Decoded Metar for LFLC (CLERMONT FERRAND in FRANCE) (IATA:CFE) | Meteo·Mobile Aviation Weather
aviador You're here:

LFLC Decoded Metar

CLERMONT FERRAND in FRANCE
Report Time2019-11-16 01:00:00
UTC Time2019-11-16 01:26:43
Flight Rules vfr VFR
WindVRB at 03 kt
Visibility9999 m
Phenomena:N/A
Clouds:Broken 037 Hf
Expected CloudBase > 800 ft AGL from Temp-Dew spread
Ceiling3,700 ft
Temp01°C (ISA -12)
Dew Point-1°C (87% RH)
AAT-2.2°C
QNH1004 hPa
Density Alt33 ft
Elevation1,083 ft
Report Wrong Elevation
Raw Report
LFLC 160100Z AUTO VRB03KT 9999 BKN037 01/M01 Q1004 NOSIG=

Extra information for LFLC:More info

Metar Taf Metar & Taf Last 4 Metars F.Rules Stats Wind Profile Meteogram Temp Stats Airport Information Weather charts Add Link Nearby VenuesMetar ALERT Operation Metar Decoded Social comments